Time;durP1;ratioP1;P1;durP2;ratioP2;P2;SDS_P1;SDS_P2;PMS_P1;PMS_P2;Temp;Humidity;BMP_temperature;BMP_pressure;BME280_temperature;BME280_humidity;BME280_pressure;Samples;Min_cycle;Max_cycle;Signal;HPM_P1;HPM_P2
2023/06/04 00:01:13;;;;;;;5.00;4.50;;;17.80;77.00;;;;;;6032138;23;21002;-79
2023/06/04 00:03:40;;;;;;;5.57;5.07;;;17.80;77.00;;;;;;6018332;23;20471;-79
2023/06/04 00:06:07;;;;;;;5.13;4.63;;;17.70;76.60;;;;;;6021658;23;20869;-79
2023/06/04 00:08:34;;;;;;;5.20;4.80;;;17.70;76.60;;;;;;6029169;23;20876;-79
2023/06/04 00:11:01;;;;;;;5.73;5.23;;;17.70;76.90;;;;;;6033386;23;20436;-79
2023/06/04 00:13:28;;;;;;;5.37;4.87;;;17.70;77.00;;;;;;6023825;23;20445;-79
2023/06/04 00:15:55;;;;;;;5.00;4.60;;;17.60;76.90;;;;;;6029375;23;20440;-79
2023/06/04 00:18:24;;;;;;;6.70;5.57;;;17.60;76.20;;;;;;6033233;23;20519;-79
2023/06/04 00:20:51;;;;;;;4.50;4.10;;;17.60;75.30;;;;;;6037364;23;20542;-79
2023/06/04 00:23:18;;;;;;;5.63;4.53;;;17.50;74.40;;;;;;6043501;23;20475;-79
2023/06/04 00:25:45;;;;;;;4.40;4.00;;;17.40;73.70;;;;;;6035803;23;20424;-79
2023/06/04 00:28:12;;;;;;;5.83;4.37;;;17.40;73.60;;;;;;6033234;23;20435;-79
2023/06/04 00:30:39;;;;;;;5.20;4.60;;;17.40;73.80;;;;;;6025869;23;20475;-78
2023/06/04 00:33:06;;;;;;;4.90;4.50;;;17.40;73.90;;;;;;6029482;23;20444;-78
2023/06/04 00:35:34;;;;;;;4.87;4.43;;;17.40;74.10;;;;;;6033361;23;20439;-78
2023/06/04 00:38:02;;;;;;;6.90;4.30;;;17.40;74.60;;;;;;6037555;23;20439;-78
2023/06/04 00:40:29;;;;;;;4.40;4.10;;;17.30;74.80;;;;;;6038001;23;20789;-78
2023/06/04 00:42:56;;;;;;;4.63;4.27;;;17.30;74.90;;;;;;6029336;23;20789;-78
2023/06/04 00:45:25;;;;;;;5.37;4.50;;;17.30;75.00;;;;;;6027918;23;20444;-78
2023/06/04 00:47:52;;;;;;;4.80;4.40;;;17.20;75.00;;;;;;6029625;23;20458;-78
2023/06/04 00:50:21;;;;;;;4.60;4.20;;;17.20;75.20;;;;;;6030246;23;20879;-78
2023/06/04 00:52:51;;;;;;;4.30;3.90;;;17.10;75.50;;;;;;6028445;23;20805;-78
2023/06/04 00:55:18;;;;;;;4.07;3.77;;;17.10;75.50;;;;;;6030775;23;20468;-78
2023/06/04 00:57:45;;;;;;;4.53;4.13;;;17.10;75.70;;;;;;6028241;23;20440;-78
2023/06/04 01:00:13;;;;;;;4.70;4.10;;;17.00;75.70;;;;;;6035025;23;20491;-79
2023/06/04 01:02:43;;;;;;;5.00;4.60;;;17.00;75.60;;;;;;6027651;23;20432;-78
2023/06/04 01:05:17;;;;;;;4.43;4.13;;;17.00;75.70;;;;;;6024020;23;20797;-78
2023/06/04 01:07:46;;;;;;;5.17;4.60;;;16.90;75.80;;;;;;6029271;23;20550;-78
2023/06/04 01:10:15;;;;;;;5.13;4.37;;;17.10;76.00;;;;;;6030171;23;20955;-78
2023/06/04 01:12:42;;;;;;;4.80;4.40;;;16.80;76.00;;;;;;6030521;23;20436;-78
2023/06/04 01:15:11;;;;;;;4.77;4.37;;;16.90;76.50;;;;;;6031530;23;20527;-78
2023/06/04 01:17:41;;;;;;;4.03;3.73;;;16.80;76.80;;;;;;6030494;23;20797;-79
2023/06/04 01:20:28;;;;;;;4.90;4.50;;;16.80;76.80;;;;;;6027879;23;20464;-78
2023/06/04 01:23:27;;;;;;;3.97;3.57;;;16.80;77.10;;;;;;6025705;23;21017;-78
2023/06/04 01:25:57;;;;;;;4.80;4.40;;;16.70;77.20;;;;;;6021862;23;20448;-78
2023/06/04 01:28:24;;;;;;;4.07;3.70;;;16.70;77.40;;;;;;6027971;23;21211;-78
2023/06/04 01:30:51;;;;;;;5.33;4.27;;;16.60;77.60;;;;;;6014415;23;20465;-78
2023/06/04 01:33:20;;;;;;;3.90;3.60;;;16.60;77.90;;;;;;6028606;23;20468;-78
2023/06/04 01:35:47;;;;;;;4.37;4.07;;;16.60;78.10;;;;;;6031488;23;20444;-78
2023/06/04 01:38:14;;;;;;;5.00;4.20;;;16.50;78.10;;;;;;6025064;23;20960;-78
2023/06/04 01:40:41;;;;;;;4.40;4.00;;;16.50;77.60;;;;;;6030630;23;20524;-79
2023/06/04 01:43:10;;;;;;;3.70;3.40;;;16.40;76.90;;;;;;6029780;23;20450;-79
2023/06/04 01:45:37;;;;;;;4.30;3.90;;;16.40;76.70;;;;;;6031351;23;20528;-79
2023/06/04 01:48:05;;;;;;;4.30;3.33;;;16.30;76.50;;;;;;6031010;23;20471;-79
2023/06/04 01:50:33;;;;;;;5.80;3.50;;;16.30;76.50;;;;;;6028549;23;20483;-78
2023/06/04 01:53:00;;;;;;;3.67;3.37;;;16.20;76.60;;;;;;6024878;23;20449;-78
2023/06/04 01:55:29;;;;;;;4.20;3.80;;;16.20;76.80;;;;;;6039554;23;20982;-79
2023/06/04 01:57:57;;;;;;;3.70;3.50;;;16.20;75.90;;;;;;6035632;23;20528;-79
2023/06/04 02:00:25;;;;;;;4.23;2.93;;;16.10;75.20;;;;;;6030493;23;21011;-78
2023/06/04 02:02:52;;;;;;;3.37;3.07;;;16.10;74.50;;;;;;6031125;23;20522;-79
2023/06/04 02:05:20;;;;;;;3.23;2.93;;;16.10;74.10;;;;;;6032835;23;20537;-79
2023/06/04 02:07:47;;;;;;;3.47;2.80;;;16.00;73.90;;;;;;6031497;23;20523;-79
2023/06/04 02:10:16;;;;;;;3.83;3.10;;;16.00;73.90;;;;;;6033256;23;20503;-79
2023/06/04 02:12:54;;;;;;;3.20;2.90;;;15.90;73.70;;;;;;6030956;23;20871;-79
2023/06/04 02:15:23;;;;;;;4.40;3.20;;;15.90;73.90;;;;;;6026323;23;20483;-80
2023/06/04 02:17:52;;;;;;;3.43;2.97;;;15.90;74.10;;;;;;6034321;23;20439;-79
2023/06/04 02:20:19;;;;;;;4.30;3.50;;;15.80;74.10;;;;;;6034068;23;20791;-79
2023/06/04 02:22:46;;;;;;;3.90;3.50;;;15.90;74.70;;;;;;6036695;23;20466;-79
2023/06/04 02:25:13;;;;;;;3.70;3.40;;;15.80;75.10;;;;;;6038344;23;21970;-79
2023/06/04 02:27:40;;;;;;;3.40;3.10;;;15.80;75.70;;;;;;6028489;23;20443;-79
2023/06/04 02:30:08;;;;;;;5.47;3.70;;;15.80;76.00;;;;;;6018699;23;20913;-79
2023/06/04 02:32:36;;;;;;;3.83;3.53;;;15.80;76.60;;;;;;6032384;23;21042;-79
2023/06/04 02:35:05;;;;;;;3.97;3.60;;;15.70;77.00;;;;;;6028774;23;21023;-79
2023/06/04 02:37:32;;;;;;;4.00;3.60;;;15.80;77.70;;;;;;6029234;23;20927;-79
2023/06/04 02:39:59;;;;;;;4.20;3.90;;;15.70;78.30;;;;;;6033657;23;20464;-79
2023/06/04 02:42:26;;;;;;;4.00;3.70;;;15.70;78.80;;;;;;6032719;23;20522;-79
2023/06/04 02:44:53;;;;;;;4.30;3.70;;;15.70;79.20;;;;;;6026285;23;20464;-79
2023/06/04 02:47:20;;;;;;;3.90;3.50;;;15.70;79.50;;;;;;6024959;23;20491;-79
2023/06/04 02:49:47;;;;;;;4.60;3.77;;;15.70;79.90;;;;;;6033627;23;20571;-79
2023/06/04 02:52:16;;;;;;;4.13;3.73;;;15.70;80.00;;;;;;6033279;23;20436;-79
2023/06/04 02:54:43;;;;;;;4.40;4.00;;;15.70;80.00;;;;;;6033224;23;20436;-79
2023/06/04 02:57:10;;;;;;;3.40;3.10;;;15.80;80.30;;;;;;6033916;23;20462;-79
2023/06/04 02:59:37;;;;;;;3.70;3.40;;;15.60;80.10;;;;;;6048781;23;20554;-79
2023/06/04 03:02:05;;;;;;;3.90;3.30;;;15.60;80.10;;;;;;6056073;23;20460;-79
2023/06/04 03:04:34;;;;;;;3.87;3.57;;;15.60;80.20;;;;;;6017566;23;20792;-79
2023/06/04 03:07:02;;;;;;;3.77;3.47;;;15.50;80.30;;;;;;6030093;23;21100;-79
2023/06/04 03:09:31;;;;;;;3.80;3.40;;;15.50;80.60;;;;;;6059487;23;20541;-79
2023/06/04 03:12:01;;;;;;;3.17;2.97;;;15.50;80.70;;;;;;6041506;23;20471;-79
2023/06/04 03:14:32;;;;;;;3.60;3.30;;;15.50;80.70;;;;;;6031817;23;20526;-79
2023/06/04 03:17:07;;;;;;;3.40;3.20;;;15.40;80.50;;;;;;6032853;23;20447;-79
2023/06/04 03:19:35;;;;;;;4.40;3.60;;;15.40;80.60;;;;;;6034421;23;20459;-79
2023/06/04 03:22:05;;;;;;;3.73;3.43;;;15.40;80.60;;;;;;6027003;23;20496;-79
2023/06/04 03:24:36;;;;;;;3.50;3.20;;;15.40;80.80;;;;;;6020943;23;20951;-79
2023/06/04 03:27:04;;;;;;;4.00;3.40;;;15.40;80.90;;;;;;6032669;23;20511;-79
2023/06/04 03:29:32;;;;;;;4.27;3.87;;;15.30;81.00;;;;;;6038292;23;20890;-79
2023/06/04 03:31:59;;;;;;;3.40;3.10;;;15.30;81.20;;;;;;6024282;23;20465;-79
2023/06/04 03:34:27;;;;;;;3.90;3.60;;;15.30;81.30;;;;;;6031787;23;20523;-79
2023/06/04 03:36:56;;;;;;;4.73;3.77;;;15.30;81.40;;;;;;6032636;23;20502;-79
2023/06/04 03:39:23;;;;;;;3.40;3.20;;;15.30;81.60;;;;;;6037937;23;20562;-78
2023/06/04 03:41:51;;;;;;;4.67;3.47;;;15.30;81.70;;;;;;6032643;23;20455;-78
2023/06/04 03:44:19;;;;;;;3.87;3.47;;;15.20;81.70;;;;;;6034131;23;21121;-79
2023/06/04 03:46:46;;;;;;;4.47;3.73;;;15.30;81.70;;;;;;6060715;23;20436;-79
2023/06/04 03:49:14;;;;;;;3.37;3.10;;;15.20;81.80;;;;;;6036205;23;20498;-79
2023/06/04 03:51:42;;;;;;;4.03;3.17;;;15.20;81.80;;;;;;6030905;23;20471;-78
2023/06/04 03:54:09;;;;;;;3.63;3.07;;;15.20;81.70;;;;;;6030417;23;20651;-79
2023/06/04 03:56:37;;;;;;;4.63;2.70;;;15.20;81.60;;;;;;6045853;23;20462;-79
2023/06/04 03:59:05;;;;;;;3.43;3.03;;;15.20;81.40;;;;;;6025571;23;20463;-79
2023/06/04 04:01:33;;;;;;;2.87;2.67;;;15.20;81.40;;;;;;6033349;23;20531;-79
2023/06/04 04:04:00;;;;;;;3.30;3.10;;;15.20;81.30;;;;;;6032874;23;20460;-79
2023/06/04 04:06:27;;;;;;;3.07;2.83;;;15.30;81.10;;;;;;6033446;23;20498;-79
2023/06/04 04:08:55;;;;;;;4.40;2.50;;;15.20;80.80;;;;;;6037601;23;20461;-79
2023/06/04 04:11:22;;;;;;;3.27;2.63;;;15.20;80.60;;;;;;6030556;23;20514;-79
2023/06/04 04:13:50;;;;;;;2.30;2.10;;;15.20;80.30;;;;;;6030956;23;20444;-79
2023/06/04 04:16:18;;;;;;;3.70;2.90;;;15.20;80.00;;;;;;6036585;23;20510;-79
2023/06/04 04:18:45;;;;;;;2.83;2.63;;;15.20;79.70;;;;;;6026512;23;20514;-79
2023/06/04 04:21:12;;;;;;;3.73;2.70;;;15.40;79.70;;;;;;6037362;23;20479;-79
2023/06/04 04:23:40;;;;;;;4.57;2.60;;;15.20;79.40;;;;;;6034660;23;20440;-78
2023/06/04 04:26:09;;;;;;;2.53;2.33;;;15.20;79.40;;;;;;6030314;23;20495;-78
2023/06/04 04:28:36;;;;;;;2.90;2.70;;;15.20;79.50;;;;;;6027026;23;20463;-78
2023/06/04 04:31:03;;;;;;;2.80;2.60;;;15.20;79.70;;;;;;6032296;23;20484;-79
2023/06/04 04:33:39;;;;;;;2.77;2.57;;;15.20;79.70;;;;;;6031307;23;20539;-79
2023/06/04 04:36:08;;;;;;;2.70;2.50;;;15.20;79.70;;;;;;6030151;23;20466;-79
2023/06/04 04:38:36;;;;;;;2.63;2.37;;;15.30;79.60;;;;;;6025750;23;20557;-78
2023/06/04 04:41:03;;;;;;;2.70;2.50;;;15.30;79.10;;;;;;6020917;23;20446;-81
2023/06/04 04:43:30;;;;;;;3.10;2.53;;;15.40;78.90;;;;;;6031812;23;20440;-82
2023/06/04 04:45:58;;;;;;;2.67;2.47;;;15.40;79.00;;;;;;6013326;23;20615;-78
2023/06/04 04:48:25;;;;;;;2.90;2.60;;;15.50;79.20;;;;;;6026065;23;20463;-78
2023/06/04 04:50:54;;;;;;;3.70;3.00;;;15.60;78.90;;;;;;6031576;23;20511;-78
2023/06/04 04:53:21;;;;;;;2.60;2.40;;;15.70;78.70;;;;;;6042350;23;20435;-78
2023/06/04 04:55:48;;;;;;;2.93;2.40;;;15.70;78.30;;;;;;6046922;23;20432;-80
2023/06/04 04:58:16;;;;;;;3.57;2.47;;;15.80;78.00;;;;;;6032448;23;20455;-79
2023/06/04 05:00:43;;;;;;;4.37;3.00;;;16.00;77.50;;;;;;6031419;23;20444;-80
2023/06/04 05:03:10;;;;;;;2.63;2.23;;;15.90;76.70;;;;;;6025805;23;20460;-80
2023/06/04 05:05:38;;;;;;;4.00;2.13;;;16.00;76.70;;;;;;6028835;23;20931;-80
2023/06/04 05:08:06;;;;;;;2.63;2.40;;;16.10;75.90;;;;;;6013704;23;20456;-80
2023/06/04 05:10:35;;;;;;;3.17;2.87;;;16.10;75.50;;;;;;6027846;23;20543;-81
2023/06/04 05:13:04;;;;;;;2.70;2.50;;;16.10;75.30;;;;;;6026889;23;20527;-80
2023/06/04 05:15:31;;;;;;;2.70;2.50;;;16.30;75.30;;;;;;6023950;23;20468;-80
2023/06/04 05:18:00;;;;;;;3.70;2.47;;;16.20;75.30;;;;;;6033625;23;20444;-82
2023/06/04 05:20:28;;;;;;;2.63;2.30;;;16.20;74.80;;;;;;6032678;23;20451;-81
2023/06/04 05:22:55;;;;;;;2.70;2.50;;;16.30;75.10;;;;;;6017821;23;20436;-79
2023/06/04 05:25:24;;;;;;;3.50;2.60;;;16.30;75.10;;;;;;6025177;23;20936;-81
2023/06/04 05:27:51;;;;;;;3.50;2.60;;;16.30;75.60;;;;;;6030309;23;21045;-80
2023/06/04 05:30:18;;;;;;;2.47;2.27;;;16.30;75.80;;;;;;6022214;23;20433;-81
2023/06/04 05:32:45;;;;;;;3.00;2.30;;;16.30;75.90;;;;;;6028048;23;20448;-80
2023/06/04 05:35:12;;;;;;;2.13;2.03;;;16.40;76.10;;;;;;6030850;23;20519;-80
2023/06/04 05:37:41;;;;;;;2.67;2.30;;;16.30;76.30;;;;;;6021493;23;20456;-80
2023/06/04 05:40:10;;;;;;;2.70;2.33;;;16.30;76.70;;;;;;6027574;23;20834;-79
2023/06/04 05:42:39;;;;;;;2.63;2.43;;;16.30;76.90;;;;;;6032849;23;20524;-79
2023/06/04 05:45:08;;;;;;;3.20;2.43;;;16.30;77.20;;;;;;6034240;23;20439;-79
2023/06/04 05:47:34;;;;;;;2.30;2.10;;;16.30;77.20;;;;;;6030696;23;20960;-80
2023/06/04 05:50:02;;;;;;;2.53;2.33;;;16.40;76.90;;;;;;6032387;23;20438;-81
2023/06/04 05:52:29;;;;;;;3.40;2.30;;;16.40;76.40;;;;;;6031997;23;20832;-74
2023/06/04 05:54:56;;;;;;;2.87;2.50;;;16.40;76.10;;;;;;6016103;23;20495;-77
2023/06/04 05:57:23;;;;;;;5.07;2.30;;;16.50;76.20;;;;;;6032308;23;20485;-74
2023/06/04 05:59:52;;;;;;;2.50;2.30;;;16.50;75.90;;;;;;6033382;23;20791;-76
2023/06/04 06:02:19;;;;;;;5.70;2.60;;;16.50;75.50;;;;;;6033552;23;20463;-78
2023/06/04 06:04:46;;;;;;;2.77;2.57;;;16.60;75.40;;;;;;6036721;23;20440;-71
2023/06/04 06:07:13;;;;;;;2.67;2.47;;;16.90;75.90;;;;;;6032843;23;20441;-76
2023/06/04 06:09:40;;;;;;;2.57;2.37;;;16.80;75.60;;;;;;6031450;23;20587;-76
2023/06/04 06:12:07;;;;;;;4.20;2.60;;;16.90;74.40;;;;;;6017238;23;20571;-76
2023/06/04 06:14:35;;;;;;;2.70;2.50;;;17.00;75.40;;;;;;6030492;23;20437;-78
2023/06/04 06:17:04;;;;;;;3.73;2.23;;;17.00;74.10;;;;;;6028739;23;20439;-74
2023/06/04 06:19:31;;;;;;;3.80;2.37;;;17.10;74.30;;;;;;6026635;23;20583;-79
2023/06/04 06:21:59;;;;;;;2.43;2.13;;;17.20;74.40;;;;;;6027645;23;20510;-75
2023/06/04 06:24:26;;;;;;;2.50;2.30;;;17.30;73.80;;;;;;6029308;23;20435;-75
2023/06/04 06:26:53;;;;;;;4.13;2.40;;;17.50;74.10;;;;;;6034442;23;20443;-76
2023/06/04 06:29:20;;;;;;;2.27;2.17;;;17.60;73.70;;;;;;6029758;23;20492;-78
2023/06/04 06:31:47;;;;;;;3.80;2.07;;;17.80;73.70;;;;;;6034168;23;20480;-79
2023/06/04 06:34:16;;;;;;;2.60;2.10;;;18.00;73.10;;;;;;6025666;23;20959;-77
2023/06/04 06:36:44;;;;;;;2.43;2.03;;;18.20;71.60;;;;;;6024234;23;20491;-77
2023/06/04 06:39:12;;;;;;;3.37;2.83;;;18.30;70.90;;;;;;6045315;23;20459;-73
2023/06/04 06:41:39;;;;;;;2.53;2.33;;;18.30;70.90;;;;;;6041777;23;20928;-77
2023/06/04 06:44:06;;;;;;;3.47;2.40;;;18.50;71.70;;;;;;6031799;23;20472;-79
2023/06/04 06:46:33;;;;;;;2.33;2.13;;;18.60;71.60;;;;;;6032596;23;20848;-78
2023/06/04 06:49:01;;;;;;;3.80;2.33;;;18.90;71.80;;;;;;6036833;23;20471;-79
2023/06/04 06:51:29;;;;;;;2.60;2.40;;;18.90;70.70;;;;;;6016293;23;20477;-80
2023/06/04 06:53:56;;;;;;;2.80;2.30;;;19.10;70.60;;;;;;6014660;23;20792;-84
2023/06/04 06:56:23;;;;;;;2.67;2.10;;;19.20;70.70;;;;;;6024239;23;20721;-83
2023/06/04 06:58:51;;;;;;;2.60;2.40;;;19.30;70.90;;;;;;6032851;23;20474;-79
2023/06/04 07:01:18;;;;;;;3.50;2.30;;;19.40;71.00;;;;;;6033434;23;20543;-83
2023/06/04 07:03:45;;;;;;;2.40;2.20;;;19.60;71.60;;;;;;6030070;23;20534;-82
2023/06/04 07:06:12;;;;;;;2.90;2.60;;;19.70;71.00;;;;;;6033237;23;20535;-72
2023/06/04 07:08:42;;;;;;;4.30;2.07;;;19.80;69.70;;;;;;6016680;23;20832;-81
2023/06/04 07:11:11;;;;;;;3.40;2.50;;;20.00;68.80;;;;;;6022349;23;20462;-85
2023/06/04 07:13:39;;;;;;;2.80;2.50;;;20.10;68.20;;;;;;6029738;23;20443;-78
2023/06/04 07:16:06;;;;;;;2.60;2.40;;;20.20;67.70;;;;;;6032223;23;20439;-81
2023/06/04 07:18:33;;;;;;;2.50;2.30;;;20.20;66.50;;;;;;6035406;23;20475;-78
2023/06/04 07:21:00;;;;;;;2.43;2.00;;;20.10;67.20;;;;;;6042453;23;20445;-75
2023/06/04 07:23:27;;;;;;;2.60;2.40;;;20.30;68.10;;;;;;6038417;23;20932;-77
2023/06/04 07:25:56;;;;;;;3.03;2.70;;;20.40;67.50;;;;;;6024365;23;20450;-86
2023/06/04 07:28:24;;;;;;;2.30;2.10;;;20.60;66.20;;;;;;6028089;23;20453;-82
2023/06/04 07:30:51;;;;;;;2.43;2.23;;;20.70;66.60;;;;;;6026722;23;20435;-74
2023/06/04 07:33:19;;;;;;;3.43;2.30;;;21.00;65.90;;;;;;6033287;23;20466;-85
2023/06/04 07:35:46;;;;;;;2.83;2.40;;;21.30;66.60;;;;;;6031620;23;20436;-82
2023/06/04 07:38:13;;;;;;;4.90;2.50;;;21.70;64.80;;;;;;6025258;23;20468;-76
2023/06/04 07:40:40;;;;;;;2.37;2.17;;;22.10;63.60;;;;;;6028731;23;20440;-89
2023/06/04 07:43:09;;;;;;;3.10;2.80;;;22.50;63.90;;;;;;6033520;23;20472;-81
2023/06/04 07:45:36;;;;;;;2.70;2.47;;;22.70;63.20;;;;;;6024913;23;21081;-79
2023/06/04 07:48:03;;;;;;;3.17;2.87;;;23.10;62.50;;;;;;6030070;23;21109;-81
2023/06/04 07:50:30;;;;;;;3.70;2.70;;;23.30;62.90;;;;;;6032588;23;20479;-78
2023/06/04 07:52:57;;;;;;;3.37;2.37;;;23.40;61.10;;;;;;6032191;23;20464;-88
2023/06/04 07:55:24;;;;;;;5.43;2.67;;;23.20;61.60;;;;;;6031073;23;20444;-79
2023/06/04 07:57:51;;;;;;;2.60;2.17;;;23.20;61.90;;;;;;6035815;23;20504;-82
2023/06/04 08:00:19;;;;;;;2.90;2.40;;;23.10;61.50;;;;;;6033878;23;21046;-75
2023/06/04 08:02:48;;;;;;;2.33;2.13;;;23.10;61.90;;;;;;6035160;23;20503;-80
2023/06/04 08:05:15;;;;;;;3.47;2.70;;;23.10;62.40;;;;;;6016516;23;20842;-76
2023/06/04 08:07:43;;;;;;;2.77;2.53;;;23.40;62.40;;;;;;6033561;23;20509;-82
2023/06/04 08:10:11;;;;;;;3.73;2.80;;;23.60;62.00;;;;;;6032394;23;20459;-80
2023/06/04 08:12:38;;;;;;;4.27;2.53;;;24.00;61.40;;;;;;6032986;23;20504;-87
2023/06/04 08:15:06;;;;;;;2.47;2.27;;;24.40;61.30;;;;;;6036595;23;20464;-84
2023/06/04 08:17:34;;;;;;;2.57;2.37;;;24.80;60.40;;;;;;6031162;23;20510;-83
2023/06/04 08:20:01;;;;;;;2.60;2.40;;;25.20;60.00;;;;;;6027295;23;20835;-81
2023/06/04 08:22:29;;;;;;;2.70;2.50;;;25.60;59.20;;;;;;6029444;23;20436;-86
2023/06/04 08:24:56;;;;;;;2.83;2.53;;;25.80;58.90;;;;;;6038024;23;20478;-79
2023/06/04 08:27:23;;;;;;;3.00;2.20;;;25.80;58.20;;;;;;6033517;23;20464;-81
2023/06/04 08:29:50;;;;;;;2.50;2.30;;;25.50;57.70;;;;;;6045071;23;20551;-73
2023/06/04 08:32:17;;;;;;;3.70;2.80;;;25.10;59.20;;;;;;6036491;23;20472;-78
2023/06/04 08:34:45;;;;;;;3.77;2.53;;;25.00;59.80;;;;;;6030874;23;20447;-79
2023/06/04 08:37:12;;;;;;;2.80;2.30;;;25.20;59.90;;;;;;6053031;23;20609;-81
2023/06/04 08:39:39;;;;;;;3.07;2.67;;;25.40;59.70;;;;;;6025830;23;20877;-74
2023/06/04 08:42:08;;;;;;;3.40;2.83;;;25.70;59.50;;;;;;6030642;23;20447;-79
2023/06/04 08:44:35;;;;;;;2.67;2.20;;;25.70;57.80;;;;;;6029063;23;20450;-76
2023/06/04 08:47:05;;;;;;;2.60;2.40;;;25.60;59.10;;;;;;6028243;23;20460;-77
2023/06/04 08:49:35;;;;;;;2.83;2.63;;;25.80;58.90;;;;;;6033663;23;20448;-80
2023/06/04 08:52:05;;;;;;;2.47;2.27;;;26.10;59.30;;;;;;6032324;23;20561;-77
2023/06/04 08:54:34;;;;;;;4.47;2.40;;;26.40;58.10;;;;;;6020559;23;20476;-74
2023/06/04 08:57:02;;;;;;;2.80;2.60;;;26.60;57.70;;;;;;6013404;23;20499;-76
2023/06/04 08:59:29;;;;;;;2.30;2.10;;;26.70;57.50;;;;;;6032514;23;21031;-79
2023/06/04 09:01:57;;;;;;;2.83;2.20;;;27.00;57.30;;;;;;6036643;23;20482;-79
2023/06/04 09:04:24;;;;;;;4.03;2.37;;;27.30;56.80;;;;;;6029822;23;20788;-83
2023/06/04 09:06:53;;;;;;;3.40;2.50;;;27.60;55.90;;;;;;6031806;23;20486;-82
2023/06/04 09:09:24;;;;;;;3.00;2.70;;;27.90;55.50;;;;;;6024615;23;20475;-83
2023/06/04 09:11:53;;;;;;;2.70;2.50;;;28.20;54.80;;;;;;6030123;23;20470;-78
2023/06/04 09:14:20;;;;;;;2.37;2.17;;;28.40;53.70;;;;;;6018977;23;20559;-81
2023/06/04 09:16:49;;;;;;;4.17;2.73;;;28.50;53.80;;;;;;6027434;23;20715;-78
2023/06/04 09:19:17;;;;;;;2.77;2.20;;;28.50;53.90;;;;;;6032719;23;20535;-83
2023/06/04 09:21:49;;;;;;;4.03;2.83;;;28.60;52.50;;;;;;6034013;23;20433;-79
2023/06/04 09:24:16;;;;;;;3.03;2.43;;;28.60;53.00;;;;;;6032609;23;21012;-83
2023/06/04 09:26:44;;;;;;;2.90;2.70;;;28.60;52.80;;;;;;6033298;23;20440;-78
2023/06/04 09:29:12;;;;;;;3.30;3.00;;;28.70;52.90;;;;;;6024320;23;20487;-80
2023/06/04 09:31:39;;;;;;;2.90;2.70;;;28.80;52.30;;;;;;6043115;23;20521;-78
2023/06/04 09:34:07;;;;;;;3.53;2.37;;;28.90;52.50;;;;;;6036726;23;20443;-78
2023/06/04 09:36:35;;;;;;;3.23;2.60;;;29.10;51.90;;;;;;6031665;23;20471;-74
2023/06/04 09:39:03;;;;;;;2.97;2.70;;;29.00;51.70;;;;;;6032246;23;20452;-80
2023/06/04 09:41:30;;;;;;;2.60;2.40;;;29.10;51.70;;;;;;6027682;23;20476;-77
2023/06/04 09:44:03;;;;;;;3.37;3.07;;;29.30;51.80;;;;;;6033368;23;20433;-77
2023/06/04 16:08:16;;;;;;;3.63;3.43;;;29.90;37.10;;;;;;6092383;23;20594;-72
2023/06/04 16:10:44;;;;;;;2.90;2.70;;;29.20;38.70;;;;;;6079353;23;20441;-73
2023/06/04 16:13:11;;;;;;;3.23;2.93;;;28.90;40.00;;;;;;6086136;23;20480;-73
2023/06/04 16:15:39;;;;;;;3.30;2.93;;;28.70;40.70;;;;;;6078579;23;20454;-73
2023/06/04 16:18:06;;;;;;;2.80;2.60;;;28.50;40.80;;;;;;6076832;23;20439;-72
2023/06/04 16:20:33;;;;;;;2.60;2.40;;;28.30;41.00;;;;;;6075824;23;20442;-73
2023/06/04 16:23:00;;;;;;;3.20;2.90;;;28.20;41.20;;;;;;6087859;23;20435;-74
2023/06/04 16:25:29;;;;;;;3.20;2.80;;;28.10;41.50;;;;;;6072473;23;20443;-70
2023/06/04 16:27:56;;;;;;;3.73;2.53;;;27.90;41.50;;;;;;6080524;23;20459;-74
2023/06/04 16:30:23;;;;;;;3.07;2.80;;;27.80;41.60;;;;;;6086217;23;20456;-75
2023/06/04 16:32:50;;;;;;;6.50;3.40;;;27.70;41.40;;;;;;6083020;23;20487;-75
2023/06/04 16:35:17;;;;;;;3.33;3.13;;;27.60;41.30;;;;;;6086233;23;20850;-75
2023/06/04 16:37:44;;;;;;;3.27;3.07;;;27.60;41.50;;;;;;6088583;23;20516;-73
2023/06/04 16:40:12;;;;;;;3.73;3.40;;;27.60;41.50;;;;;;6069430;23;21083;-74
2023/06/04 16:42:40;;;;;;;2.60;2.40;;;27.50;41.80;;;;;;6079442;23;20459;-74
2023/06/04 16:45:08;;;;;;;2.80;2.60;;;27.50;42.10;;;;;;6085152;23;22264;-74
2023/06/04 16:47:36;;;;;;;3.40;3.10;;;27.50;43.00;;;;;;6076349;23;20465;-74
2023/06/04 16:50:04;;;;;;;4.67;3.17;;;27.40;43.30;;;;;;6090524;23;20435;-75
2023/06/04 16:52:31;;;;;;;2.97;2.73;;;27.30;42.20;;;;;;6086388;23;20430;-75
2023/06/04 16:54:59;;;;;;;2.70;2.50;;;27.30;42.20;;;;;;6073686;23;20429;-72
2023/06/04 16:57:26;;;;;;;3.73;2.60;;;27.30;42.80;;;;;;6072961;23;20480;-82
2023/06/04 16:59:54;;;;;;;3.40;2.63;;;27.20;43.20;;;;;;6081540;23;20456;-83
2023/06/04 17:02:22;;;;;;;2.97;2.40;;;27.20;43.60;;;;;;6085054;23;20442;-80
2023/06/04 17:04:49;;;;;;;2.80;2.47;;;27.20;42.80;;;;;;6084758;23;20498;-80
2023/06/04 17:07:15;;;;;;;2.80;2.60;;;27.10;43.10;;;;;;6078586;23;20869;-79
2023/06/04 17:09:43;;;;;;;2.70;2.50;;;27.00;43.50;;;;;;6078830;23;20885;-79
2023/06/04 17:12:10;;;;;;;2.57;2.37;;;27.00;42.90;;;;;;6068674;23;21001;-80
2023/06/04 17:14:37;;;;;;;2.97;2.73;;;26.80;44.10;;;;;;6089122;23;20430;-81
2023/06/04 17:17:06;;;;;;;2.80;2.60;;;26.70;43.80;;;;;;6076304;23;20553;-82
2023/06/04 17:19:33;;;;;;;4.27;2.93;;;26.60;43.30;;;;;;6078467;22;20888;-64
2023/06/04 17:22:02;;;;;;;3.33;3.03;;;26.50;43.20;;;;;;6071601;23;20496;-64
2023/06/04 17:24:30;;;;;;;2.70;2.50;;;26.50;44.10;;;;;;6078182;23;20438;-65
2023/06/04 17:26:57;;;;;;;3.30;2.60;;;26.40;44.00;;;;;;6049930;23;20458;-65
2023/06/04 17:29:24;;;;;;;2.60;2.40;;;26.30;44.10;;;;;;6052321;23;20518;-64
2023/06/04 17:31:52;;;;;;;2.67;2.40;;;26.20;44.50;;;;;;6035075;23;20432;-65
2023/06/04 17:34:20;;;;;;;3.40;2.97;;;26.20;44.20;;;;;;6059531;23;20435;-65
2023/06/04 17:36:47;;;;;;;5.20;3.00;;;26.00;44.80;;;;;;6055059;23;20804;-64
2023/06/04 17:39:14;;;;;;;2.83;2.60;;;26.00;45.10;;;;;;6057420;23;21003;-64
2023/06/04 17:41:42;;;;;;;2.80;2.50;;;25.90;45.00;;;;;;6055078;23;20443;-64
2023/06/04 17:44:09;;;;;;;3.10;2.60;;;25.80;45.10;;;;;;6044136;23;20498;-64
2023/06/04 17:46:36;;;;;;;3.37;3.07;;;25.70;45.40;;;;;;6053322;23;20996;-64
2023/06/04 17:49:09;;;;;;;2.87;2.60;;;25.70;45.10;;;;;;6060743;23;20474;-63
2023/06/04 17:51:38;;;;;;;2.97;2.63;;;25.60;45.00;;;;;;6053765;23;20516;-64
2023/06/04 17:54:05;;;;;;;3.40;2.90;;;25.60;45.30;;;;;;6045953;23;20589;-64
2023/06/04 17:56:32;;;;;;;2.70;2.50;;;25.40;44.90;;;;;;6043454;23;20462;-64
2023/06/04 17:58:59;;;;;;;2.70;2.50;;;25.40;44.90;;;;;;6040240;23;20493;-63
2023/06/04 18:01:26;;;;;;;2.57;2.37;;;25.20;45.30;;;;;;6025200;23;20441;-63
2023/06/04 18:03:53;;;;;;;2.80;2.50;;;25.20;45.10;;;;;;6038387;23;20534;-64
2023/06/04 18:06:21;;;;;;;2.80;2.40;;;25.10;45.40;;;;;;6043823;23;20549;-64
2023/06/04 18:08:49;;;;;;;2.77;2.57;;;25.10;45.60;;;;;;6040934;23;21199;-62
2023/06/04 18:11:16;;;;;;;2.53;2.33;;;25.00;45.30;;;;;;6041354;23;20451;-62
2023/06/04 18:13:43;;;;;;;2.63;2.43;;;25.00;45.40;;;;;;6047464;23;20439;-62
2023/06/04 18:16:14;;;;;;;3.20;2.30;;;24.90;45.20;;;;;;6041931;23;20575;-62
2023/06/04 18:18:41;;;;;;;2.90;2.70;;;24.80;45.40;;;;;;6044599;23;20436;-62
2023/06/04 18:21:08;;;;;;;4.70;2.57;;;24.70;45.50;;;;;;6048512;23;20485;-64
2023/06/04 18:23:35;;;;;;;3.20;2.30;;;24.60;46.10;;;;;;6048905;23;20511;-64
2023/06/04 18:26:04;;;;;;;2.60;2.40;;;24.70;45.80;;;;;;6056299;23;20465;-63
2023/06/04 18:28:31;;;;;;;2.87;2.67;;;24.50;45.80;;;;;;6048891;23;20554;-61
2023/06/04 18:30:58;;;;;;;3.53;2.80;;;24.50;45.90;;;;;;6052675;23;20481;-62
2023/06/04 18:33:25;;;;;;;2.67;2.47;;;24.50;46.30;;;;;;6058477;23;20467;-62
2023/06/04 18:35:53;;;;;;;3.10;2.80;;;24.40;46.10;;;;;;6058877;23;20530;-62
2023/06/04 18:38:20;;;;;;;4.00;3.60;;;24.30;46.60;;;;;;6051092;23;20842;-63
2023/06/04 18:40:47;;;;;;;2.87;2.67;;;24.20;46.40;;;;;;6054986;23;20427;-63
2023/06/04 18:43:16;;;;;;;3.50;2.43;;;24.20;46.30;;;;;;6042450;23;20444;-63
2023/06/04 18:45:43;;;;;;;3.17;2.87;;;24.10;46.40;;;;;;6057845;23;20458;-63
2023/06/04 18:48:10;;;;;;;3.03;2.83;;;24.10;46.60;;;;;;6059484;23;20563;-63
2023/06/04 18:50:38;;;;;;;3.83;3.10;;;24.00;46.60;;;;;;6047498;23;20445;-63
2023/06/04 18:53:05;;;;;;;3.33;2.60;;;23.90;46.80;;;;;;6044842;23;20432;-63
2023/06/04 18:55:32;;;;;;;2.97;2.50;;;23.80;46.90;;;;;;6054663;23;20539;-64
2023/06/04 18:57:59;;;;;;;4.40;3.13;;;23.80;47.10;;;;;;6052302;23;20501;-73
2023/06/04 19:00:27;;;;;;;2.70;2.40;;;23.70;47.10;;;;;;6045859;23;20470;-63
2023/06/04 19:02:54;;;;;;;5.10;2.90;;;23.60;47.00;;;;;;6037970;23;20885;-62
2023/06/04 19:05:21;;;;;;;2.57;2.20;;;23.60;47.70;;;;;;6055730;23;20858;-63
2023/06/04 19:07:51;;;;;;;2.70;2.33;;;23.50;46.90;;;;;;6058628;23;20471;-63
2023/06/04 19:10:18;;;;;;;4.60;2.83;;;23.40;47.60;;;;;;6054040;23;20447;-63
2023/06/04 19:12:45;;;;;;;3.03;2.53;;;23.30;48.30;;;;;;6061013;23;20522;-63